• Join FlightAware (Why Join?)
  • Login
  • US Flag 
05:50PM EDT


 

Airport Tracker/Info


-or-


 

Live Flight TrackerFlight Track Log ✈ SWA407 ✈ 10-Apr-2013 ✈ KBUF - KBWI

Flight Track Log - Related Links

Times and Time Zones

All times are in EDT time to prevent confusion due to time zone crossing. See the SWA407 flight status page for this flight to view local times or setup timezone preferences in your user account.

Time Position Orientation Groundspeed Altitude Reporting Facility
EDT Latitude Longitude Course Direction KTS MPH feet Rate Location/Type
07:09PM 42.9500 -78.7167 90° East 138 159 1,700  Level Buffalo TRACON
07:09PM 42.9500 -78.7000 90° East 140 161 2,500 2,760 Climbing Buffalo TRACON
07:12PM 42.8367 -78.6947 178° South 205 236 9,300 2,580 Climbing Cleveland Center
07:13PM 42.7653 -78.6714 167° South 248 285 11,400 2,640 Climbing Cleveland Center
07:14PM 42.6689 -78.6319 163° South 299 344 14,600 3,240 Climbing Cleveland Center
07:15PM 42.5700 -78.5758 157° South 356 410 17,900 4,200 Climbing Cleveland Center
07:16PM 42.4667 -78.5144 156° South 383 441 23,000 2,520 Climbing Cleveland Center
07:17PM 42.3719 -78.4583 156° South 390 449 23,000  Level Cleveland Center
07:18PM 42.2750 -78.4028 157° South 385 443 23,000  Level Cleveland Center
07:19PM 42.1842 -78.3497 157° South 385 443 23,000  Level Cleveland Center
07:20PM 42.0706 -78.2867 158° South 390 449 23,000  Level Cleveland Center
07:21PM 41.9672 -78.2289 157° South 395 455 23,000  Level Cleveland Center
07:22PM 41.8681 -78.1711 157° South 395 455 23,000  Level Cleveland Center
07:24PM 41.6975 -78.0639 155° Southeast 396 456 23,000  Level New York Center
07:25PM 41.6164 -77.9578 136° Southeast 405 466 23,000  Level New York Center
07:26PM 41.5314 -77.8489 136° Southeast 411 473 23,000  Level New York Center
07:27PM 41.4383 -77.7642 146° Southeast 411 473 23,000  Level New York Center
07:28PM 41.3386 -77.6875 150° Southeast 411 473 23,000 -120 Level New York Center
07:29PM 41.2392 -77.6083 149° Southeast 417 480 22,800 -660 Descending New York Center
07:30PM 41.1464 -77.5164 143° Southeast 422 486 21,800 -1,020 Descending New York Center
07:31PM 41.0783 -77.3911 126° Southeast 417 480 20,800 -1,020 Descending New York Center
07:32PM 41.0061 -77.2658 127° Southeast 417 480 19,800 -1,020 Descending New York Center
07:33PM 40.9356 -77.1464 128° Southeast 417 480 18,800 -1,080 Descending New York Center
07:34PM 40.8364 -77.0906 157° South 389 448 17,700 -1,080 Descending New York Center
07:35PM 40.7383 -77.0514 163° South 381 438 16,700 -1,080 Descending New York Center
07:36PM 40.6272 -77.0250 170° South 368 423 15,600 -1,020 Descending New York Center
07:37PM 40.5308 -76.9969 168° South 368 423 14,700 -1,020 Descending New York Center
07:38PM 40.4300 -76.9717 169° South 368 423 13,600 -1,020 Descending New York Center
07:39PM 40.3353 -76.9494 170° South 368 423 12,700 -960 Descending New York Center
07:40PM 40.2489 -76.9281 169° South 360 414 11,700 -1,020 Descending New York Center
07:41PM 40.1583 -76.9039 168° South 353 406 10,700 -840 Descending New York Center
07:42PM 40.0656 -76.8819 170° South 329 379 10,100 -240 Descending New York Center
07:44PM 39.8833 -76.8333 168° South 330 380 10,000 -60 Descending Potomac TRACON
07:45PM 39.8000 -76.8167 171° South 327 376 10,000 -60 Level Potomac TRACON
07:46PM 39.7167 -76.8000 171° South 313 360 9,900 -840 Descending Potomac TRACON
07:47PM 39.6333 -76.7667 163° South 305 351 8,400 -1,380 Descending Potomac TRACON
07:48PM 39.5667 -76.7000 142° Southeast 292 336 7,200 -1,320 Descending Potomac TRACON
07:49PM 39.5000 -76.6333 142° Southeast 285 328 5,800 -1,440 Descending Potomac TRACON
07:50PM 39.4333 -76.5667 142° Southeast 275 316 4,200 -900 Descending Potomac TRACON
07:51PM 39.3833 -76.5167 142° Southeast 266 306 4,000 -120 Descending Potomac TRACON
07:52PM 39.3167 -76.4833 159° South 249 287 4,000  Level Potomac TRACON
07:53PM 39.2500 -76.4500 159° South 242 278 4,000 -180 Level Potomac TRACON
07:54PM 39.2000 -76.4500 180° South 226 260 3,700 -420 Descending Potomac TRACON
07:55PM 39.1333 -76.4500 180° South 202 232 3,200 -360 Descending Potomac TRACON
07:56PM 39.1167 -76.5000 247° West 196 226 3,000 -120 Descending Potomac TRACON
07:56PM 39.1000 -76.5500 247° West 151 174 3,000 -600 Level Potomac TRACON
07:58PM 39.1000 -76.6167 270° West 161 185 1,900 -1,080 Descending Potomac TRACON
07:59PM 39.1333 -76.6333 339° North 148 170 800 -1,140 Descending Potomac TRACON